TimeEST,TemperatureF,Dew PointF,Humidity,Sea Level PressureIn,VisibilityMPH,Wind Direction,Wind SpeedMPH,Gust SpeedMPH,PrecipitationIn,Events,Conditions,WindDirDegrees,DateUTC
12:15 AM,29.7,20.1,68,30.19,10.0,WNW,8.1,-,N/A,,Overcast,300,2013-12-06 05:15:00
12:35 AM,29.3,19.0,66,30.21,10.0,NW,8.1,-,N/A,,Overcast,320,2013-12-06 05:35:00
12:55 AM,29.1,19.9,69,30.20,10.0,NNW,10.4,16.1,N/A,,Overcast,330,2013-12-06 05:55:00
1:14 AM,28.8,19.4,68,30.19,10.0,NW,9.2,-,N/A,,Overcast,320,2013-12-06 06:14:00
1:35 AM,28.4,19.0,68,30.18,10.0,NW,9.2,-,N/A,,Overcast,310,2013-12-06 06:35:00
1:55 AM,28.4,19.0,68,30.18,10.0,NW,9.2,16.1,N/A,,Overcast,320,2013-12-06 06:55:00
2:15 AM,28.2,18.9,68,30.19,10.0,NNW,10.4,-,N/A,,Overcast,330,2013-12-06 07:15:00
2:35 AM,28.0,19.0,69,30.19,10.0,NNW,9.2,-,N/A,,Overcast,330,2013-12-06 07:35:00
2:55 AM,28.0,19.0,69,30.20,10.0,NW,8.1,-,N/A,,Overcast,310,2013-12-06 07:55:00
3:15 AM,28.0,18.7,68,30.20,10.0,NNW,5.8,-,N/A,,Overcast,330,2013-12-06 08:15:00
3:35 AM,28.0,19.2,70,30.21,10.0,NW,8.1,-,N/A,,Overcast,310,2013-12-06 08:35:00
3:55 AM,28.0,19.4,70,30.22,10.0,NW,6.9,-,N/A,,Overcast,310,2013-12-06 08:55:00
4:15 AM,27.9,19.2,70,30.21,10.0,NNW,8.1,-,N/A,,Overcast,330,2013-12-06 09:15:00
4:35 AM,27.5,18.9,70,30.23,10.0,NW,9.2,-,N/A,,Overcast,320,2013-12-06 09:35:00
4:55 AM,27.5,18.5,69,30.23,10.0,NW,10.4,-,N/A,,Overcast,320,2013-12-06 09:55:00
5:15 AM,27.5,19.0,71,30.22,10.0,NW,9.2,-,N/A,,Overcast,320,2013-12-06 10:15:00
5:35 AM,27.3,19.2,72,30.23,10.0,NW,10.4,-,N/A,,Overcast,320,2013-12-06 10:35:00
5:55 AM,27.5,18.3,68,30.23,10.0,NNW,8.1,-,N/A,,Overcast,340,2013-12-06 10:55:00
6:15 AM,27.3,18.9,70,30.24,10.0,NW,9.2,-,N/A,,Overcast,320,2013-12-06 11:15:00
6:35 AM,27.0,18.9,72,30.24,10.0,NNW,11.5,16.1,N/A,,Overcast,330,2013-12-06 11:35:00
6:55 AM,26.6,18.0,70,30.25,10.0,NW,8.1,-,N/A,,Overcast,320,2013-12-06 11:55:00
7:15 AM,26.6,18.0,70,30.25,10.0,NNW,8.1,-,N/A,,Overcast,330,2013-12-06 12:15:00
7:35 AM,26.4,17.6,69,30.26,10.0,NW,9.2,16.1,N/A,,Overcast,320,2013-12-06 12:35:00
7:55 AM,26.2,17.8,70,30.26,10.0,NNW,9.2,-,N/A,,Overcast,340,2013-12-06 12:55:00
8:15 AM,25.9,17.6,71,30.27,10.0,NNW,8.1,-,N/A,,Overcast,340,2013-12-06 13:15:00
8:35 AM,25.9,17.6,71,30.28,10.0,NNW,8.1,-,N/A,,Overcast,330,2013-12-06 13:35:00
8:55 AM,25.9,17.6,71,30.28,10.0,North,5.8,-,N/A,,Overcast,350,2013-12-06 13:55:00
9:15 AM,26.1,17.2,69,30.28,10.0,NW,6.9,-,N/A,,Overcast,320,2013-12-06 14:15:00
9:35 AM,25.7,17.4,71,30.27,10.0,NNW,9.2,16.1,N/A,,Overcast,330,2013-12-06 14:35:00
9:55 AM,26.1,17.4,70,30.29,10.0,NW,9.2,-,N/A,,Overcast,310,2013-12-06 14:55:00
10:15 AM,26.1,16.9,68,30.30,10.0,NW,9.2,-,N/A,,Overcast,320,2013-12-06 15:15:00
10:35 AM,26.1,16.3,67,30.32,10.0,NW,6.9,-,N/A,,Overcast,310,2013-12-06 15:35:00
10:55 AM,26.1,16.9,68,30.32,10.0,NNW,8.1,-,N/A,,Overcast,330,2013-12-06 15:55:00
11:15 AM,25.7,17.4,71,30.33,10.0,North,10.4,-,N/A,,Overcast,350,2013-12-06 16:15:00
11:35 AM,25.5,17.8,72,30.31,10.0,NNW,6.9,-,N/A,Snow,Light Snow,340,2013-12-06 16:35:00
11:55 AM,25.5,17.4,71,30.32,10.0,NNW,13.8,18.4,N/A,,Overcast,330,2013-12-06 16:55:00
12:15 PM,25.5,17.4,71,30.34,10.0,NNW,9.2,16.1,N/A,,Overcast,330,2013-12-06 17:15:00
12:34 PM,25.3,16.5,69,30.31,10.0,NW,9.2,-,N/A,,Overcast,320,2013-12-06 17:34:00
12:55 PM,25.7,16.3,68,30.30,10.0,NW,8.1,-,N/A,,Overcast,320,2013-12-06 17:55:00
1:15 PM,25.2,16.5,70,30.30,10.0,NNW,6.9,-,N/A,,Overcast,330,2013-12-06 18:15:00
1:35 PM,24.8,16.0,69,30.29,10.0,NNW,12.7,-,N/A,,Overcast,330,2013-12-06 18:35:00
1:55 PM,24.8,16.0,69,30.29,10.0,NNW,5.8,-,N/A,,Overcast,340,2013-12-06 18:55:00
2:15 PM,25.2,15.8,68,30.29,10.0,NNW,8.1,-,N/A,,Overcast,340,2013-12-06 19:15:00
2:35 PM,25.2,16.3,69,30.30,10.0,NW,8.1,-,N/A,,Overcast,320,2013-12-06 19:35:00
2:55 PM,24.8,16.3,70,30.30,10.0,NNW,10.4,-,N/A,,Overcast,330,2013-12-06 19:55:00
3:15 PM,24.8,16.0,69,30.30,10.0,NNW,8.1,17.3,N/A,,Overcast,330,2013-12-06 20:15:00
3:35 PM,24.4,15.8,70,30.31,10.0,NW,8.1,-,N/A,,Overcast,310,2013-12-06 20:35:00
3:55 PM,24.6,15.8,69,30.31,10.0,NW,6.9,-,N/A,,Overcast,310,2013-12-06 20:55:00
4:15 PM,24.4,15.4,69,30.30,10.0,NNW,9.2,-,N/A,,Overcast,330,2013-12-06 21:15:00
4:35 PM,24.4,15.6,69,30.32,10.0,NNW,6.9,-,N/A,,Overcast,330,2013-12-06 21:35:00
4:55 PM,24.4,15.3,68,30.31,10.0,NW,6.9,-,N/A,,Overcast,310,2013-12-06 21:55:00
5:15 PM,24.3,15.3,69,30.32,10.0,NNW,5.8,-,N/A,,Overcast,330,2013-12-06 22:15:00
5:35 PM,23.9,15.3,70,30.33,10.0,NNW,6.9,-,N/A,,Overcast,330,2013-12-06 22:35:00
5:55 PM,24.3,15.3,69,30.34,10.0,NW,9.2,-,N/A,,Overcast,310,2013-12-06 22:55:00
6:15 PM,23.9,14.9,69,30.34,10.0,NNW,8.1,-,N/A,,Overcast,330,2013-12-06 23:15:00
6:35 PM,23.9,13.8,65,30.35,10.0,NW,6.9,-,N/A,,Overcast,320,2013-12-06 23:35:00
6:55 PM,23.9,14.4,67,30.35,10.0,NNW,6.9,-,N/A,,Overcast,330,2013-12-06 23:55:00
7:15 PM,23.9,12.9,63,30.36,10.0,NW,9.2,-,N/A,,Overcast,320,2013-12-07 00:15:00
7:35 PM,23.9,13.1,63,30.36,10.0,NW,8.1,-,N/A,,Overcast,310,2013-12-07 00:35:00
7:55 PM,23.9,13.1,63,30.36,10.0,NW,5.8,-,N/A,,Overcast,320,2013-12-07 00:55:00
8:15 PM,23.9,13.5,64,30.37,10.0,NW,6.9,-,N/A,,Overcast,320,2013-12-07 01:15:00
8:35 PM,23.9,13.1,63,30.37,10.0,WNW,9.2,-,N/A,,Overcast,300,2013-12-07 01:35:00
8:55 PM,24.1,12.2,61,30.37,10.0,WNW,8.1,-,N/A,,Overcast,300,2013-12-07 01:55:00
9:15 PM,23.9,12.9,63,30.37,10.0,North,6.9,-,N/A,,Overcast,350,2013-12-07 02:15:00
9:35 PM,23.9,13.1,63,30.38,10.0,NW,8.1,-,N/A,,Overcast,320,2013-12-07 02:35:00
9:54 PM,24.3,13.3,63,30.39,10.0,NNW,8.1,-,N/A,Snow,Light Snow,330,2013-12-07 02:54:00
10:15 PM,24.4,13.3,63,30.39,10.0,NNW,5.8,-,N/A,,Overcast,330,2013-12-07 03:15:00
10:35 PM,24.3,14.2,65,30.40,10.0,NW,8.1,-,N/A,Snow,Light Snow,310,2013-12-07 03:35:00
10:55 PM,24.3,14.2,65,30.40,10.0,NW,11.5,16.1,N/A,Snow,Light Snow,320,2013-12-07 03:55:00
11:15 PM,23.9,14.2,66,30.41,10.0,NW,10.4,18.4,N/A,Snow,Light Snow,320,2013-12-07 04:15:00
11:35 PM,23.7,14.7,69,30.41,10.0,NW,8.1,-,N/A,,Overcast,310,2013-12-07 04:35:00
11:55 PM,23.5,13.6,66,30.42,10.0,NW,8.1,17.3,N/A,Snow,Light Snow,310,2013-12-07 04:55:00